Buckhorn, California
Current Conditions -  °F | °C
As of 4:15 PM on Tuesday 25 Nov 2014 (Local Time) from KPVF Reporting Station
Clear Clear  
Wind Chill: 59°   Ceiling: Unl
Heat Index: 59°   Visibility: 10mi
Dew Point: 37°   Wind: 0mph
Humidity: 45%   Direction: NA
Pressure: 30.42"   Gusts: NA
Location:  38.5644°N, 120.32°W
Report Text: KPVF 260015Z AUTO 00000KT 10SM CLR 15/03 A3042 RMK AO1
Loading
Personal Weather Stations






























Interactive Weather Map New forecast layout! Learn more

10-Day Weather Forecast

Advertisements
Track Severe Weather on mobile